Time,TemperatureF,DewpointF,PressureIn,WindDirection,WindDirectionDegrees,WindSpeedMPH,WindSpeedGustMPH,Humidity,HourlyPrecipIn,Conditions,Clouds,dailyrainin,SoftwareType,DateUTC
2013-07-21 00:00:00,68.0,68.0,-100.00,SW,235,0.0,0.0,99,-99.99,,,-99.99,,2013-07-21 04:00:00,
2013-07-21 00:01:00,67.0,67.0,-100.00,WNW,295,0.0,1.0,99,-99.99,,,-99.99,,2013-07-21 04:01:00,
2013-07-21 00:11:00,68.0,68.0,-100.00,WSW,245,0.0,1.0,99,-99.99,,,-99.99,,2013-07-21 04:11:00,
2013-07-21 00:22:00,67.0,67.0,-100.00,West,260,0.0,0.0,99,-99.99,,,-99.99,,2013-07-21 04:22:00,
2013-07-21 00:32:00,67.0,67.0,-100.00,NW,315,0.0,0.0,99,-99.99,,,-99.99,,2013-07-21 04:32:00,
2013-07-21 00:43:00,67.0,67.0,-100.00,SSW,210,1.0,1.0,99,-99.99,,,-99.99,,2013-07-21 04:43:00,
2013-07-21 00:53:00,67.0,67.0,-100.00,SSW,210,0.0,1.0,99,-99.99,,,-99.99,,2013-07-21 04:53:00,
2013-07-21 01:02:00,67.0,67.0,-100.00,SW,235,0.0,0.0,99,-99.99,,,-99.99,,2013-07-21 05:02:00,
2013-07-21 01:11:00,67.0,67.0,-100.00,SW,230,0.0,0.0,99,-99.99,,,-99.99,,2013-07-21 05:11:00,
2013-07-21 01:22:00,67.0,67.0,-100.00,NNW,330,0.0,0.0,99,-99.99,,,-99.99,,2013-07-21 05:22:00,
2013-07-21 01:32:00,67.0,67.0,-100.00,NNW,330,0.0,0.0,99,-99.99,,,-99.99,,2013-07-21 05:32:00,
2013-07-21 01:42:00,67.0,67.0,-100.00,West,275,0.0,0.0,99,-99.99,,,-99.99,,2013-07-21 05:42:00,
2013-07-21 01:52:00,66.0,66.0,-100.00,West,280,0.0,0.0,99,-99.99,,,-99.99,,2013-07-21 05:52:00,
2013-07-21 02:01:00,66.0,66.0,-100.00,WSW,240,0.0,1.0,99,-99.99,,,-99.99,,2013-07-21 06:01:00,
2013-07-21 02:11:00,66.0,66.0,-100.00,WSW,240,0.0,1.0,99,-99.99,,,-99.99,,2013-07-21 06:11:00,
2013-07-21 02:22:00,66.0,66.0,-100.00,West,260,0.0,0.0,99,-99.99,,,-99.99,,2013-07-21 06:22:00,
2013-07-21 02:32:00,66.0,66.0,-100.00,West,260,0.0,0.0,99,-99.99,,,-99.99,,2013-07-21 06:32:00,
2013-07-21 02:42:00,66.0,66.0,-100.00,WSW,250,0.0,1.0,99,-99.99,,,-99.99,,2013-07-21 06:42:00,
2013-07-21 02:53:00,66.0,66.0,-100.00,SW,220,0.0,1.0,99,-99.99,,,-99.99,,2013-07-21 06:53:00,
2013-07-21 03:01:00,66.0,66.0,-100.00,SW,220,0.0,0.0,99,-99.99,,,-99.99,,2013-07-21 07:01:00,
2013-07-21 03:11:00,65.0,65.0,-100.00,SSW,205,0.0,1.0,99,-99.99,,,-99.99,,2013-07-21 07:11:00,
2013-07-21 03:22:00,65.0,65.0,-100.00,SW,220,0.0,1.0,99,-99.99,,,-99.99,,2013-07-21 07:22:00,
2013-07-21 03:32:00,66.0,66.0,-100.00,NNW,330,0.0,1.0,99,-99.99,,,-99.99,,2013-07-21 07:32:00,
2013-07-21 03:43:00,65.0,65.0,-100.00,SSW,205,0.0,1.0,99,-99.99,,,-99.99,,2013-07-21 07:43:00,
2013-07-21 03:52:00,66.0,66.0,-100.00,NW,320,0.0,0.0,99,-99.99,,,-99.99,,2013-07-21 07:52:00,
2013-07-21 04:01:00,66.0,66.0,-100.00,WNW,290,0.0,0.0,99,-99.99,,,-99.99,,2013-07-21 08:01:00,
2013-07-21 04:11:00,65.0,65.0,-100.00,WNW,290,0.0,0.0,99,-99.99,,,-99.99,,2013-07-21 08:11:00,
2013-07-21 04:22:00,65.0,65.0,-100.00,WNW,290,0.0,0.0,99,-99.99,,,-99.99,,2013-07-21 08:22:00,
2013-07-21 04:33:00,65.0,65.0,-100.00,NNE,30,1.0,3.0,99,-99.99,,,-99.99,,2013-07-21 08:33:00,
2013-07-21 04:43:00,65.0,65.0,-100.00,NNE,30,1.0,3.0,99,-99.99,,,-99.99,,2013-07-21 08:43:00,
2013-07-21 04:52:00,66.0,65.0,-100.00,SW,225,0.0,1.0,99,-99.99,,,-99.99,,2013-07-21 08:52:00,
2013-07-21 05:02:00,65.0,65.0,-100.00,SW,225,0.0,0.0,99,-99.99,,,-99.99,,2013-07-21 09:02:00,
2013-07-21 05:12:00,65.0,65.0,-100.00,SW,225,0.0,0.0,99,-99.99,,,-99.99,,2013-07-21 09:12:00,
2013-07-21 05:22:00,65.0,65.0,-100.00,SW,230,0.0,1.0,99,-99.99,,,-99.99,,2013-07-21 09:22:00,
2013-07-21 05:32:00,66.0,65.0,-100.00,NW,325,0.0,1.0,99,-99.99,,,-99.99,,2013-07-21 09:32:00,
2013-07-21 05:42:00,65.0,65.0,-100.00,SW,230,0.0,0.0,99,-99.99,,,-99.99,,2013-07-21 09:42:00,
2013-07-21 05:52:00,65.0,65.0,-100.00,SW,230,0.0,0.0,99,-99.99,,,-99.99,,2013-07-21 09:52:00,
2013-07-21 06:02:00,65.0,65.0,-100.00,NNW,335,0.0,1.0,99,-99.99,,,-99.99,,2013-07-21 10:02:00,
2013-07-21 06:11:00,65.0,65.0,-100.00,WSW,255,0.0,0.0,99,-99.99,,,-99.99,,2013-07-21 10:11:00,
2013-07-21 06:22:00,65.0,65.0,-100.00,WSW,255,0.0,0.0,99,-99.99,,,-99.99,,2013-07-21 10:22:00,
2013-07-21 06:32:00,65.0,65.0,-100.00,NW,310,0.0,1.0,99,-99.99,,,-99.99,,2013-07-21 10:32:00,
2013-07-21 06:43:00,65.0,65.0,-100.00,WSW,255,0.0,0.0,99,-99.99,,,-99.99,,2013-07-21 10:43:00,
2013-07-21 06:52:00,65.0,65.0,-100.00,West,260,0.0,0.0,99,-99.99,,,-99.99,,2013-07-21 10:52:00,
2013-07-21 07:02:00,65.0,65.0,-100.00,West,260,0.0,0.0,99,-99.99,,,-99.99,,2013-07-21 11:02:00,
2013-07-21 07:12:00,66.0,65.0,-100.00,South,190,0.0,0.0,99,-99.99,,,-99.99,,2013-07-21 11:12:00,
2013-07-21 07:22:00,66.0,66.0,-100.00,South,190,0.0,0.0,99,-99.99,,,-99.99,,2013-07-21 11:22:00,
2013-07-21 07:33:00,66.0,66.0,-100.00,SSW,195,0.0,0.0,99,-99.99,,,-99.99,,2013-07-21 11:33:00,
2013-07-21 07:43:00,66.0,66.0,-100.00,South,190,0.0,1.0,99,-99.99,,,-99.99,,2013-07-21 11:43:00,
2013-07-21 07:52:00,67.0,67.0,-100.00,East,100,1.0,2.0,99,-99.99,,,-99.99,,2013-07-21 11:52:00,
2013-07-21 08:01:00,67.0,67.0,-100.00,East,100,1.0,2.0,99,-99.99,,,-99.99,,2013-07-21 12:01:00,
2013-07-21 08:11:00,69.0,69.0,-100.00,SE,135,1.0,4.0,99,-99.99,,,-99.99,,2013-07-21 12:11:00,
2013-07-21 08:22:00,70.0,70.0,-100.00,ESE,110,0.0,3.0,99,-99.99,,,-99.99,,2013-07-21 12:22:00,
2013-07-21 08:32:00,70.0,70.0,-100.00,East,90,1.0,3.0,99,-99.99,,,-99.99,,2013-07-21 12:32:00,
2013-07-21 08:43:00,70.0,70.0,-100.00,East,90,1.0,3.0,99,-99.99,,,-99.99,,2013-07-21 12:43:00,
2013-07-21 08:53:00,71.0,71.0,-100.00,SE,135,2.0,4.0,99,-99.99,,,-99.99,,2013-07-21 12:53:00,
2013-07-21 09:02:00,71.0,71.0,-100.00,SE,135,2.0,4.0,99,-99.99,,,-99.99,,2013-07-21 13:02:00,
2013-07-21 09:12:00,71.0,71.0,-100.00,ESE,115,1.0,6.0,99,-99.99,,,-99.99,,2013-07-21 13:12:00,
2013-07-21 09:22:00,71.0,71.0,-100.00,SSE,165,1.0,5.0,99,-99.99,,,-99.99,,2013-07-21 13:22:00,
2013-07-21 09:32:00,71.0,71.0,-100.00,SSE,165,1.0,5.0,99,-99.99,,,-99.99,,2013-07-21 13:32:00,
2013-07-21 09:43:00,72.0,72.0,-100.00,ESE,120,2.0,6.0,99,-99.99,,,-99.99,,2013-07-21 13:43:00,
2013-07-21 09:52:00,74.0,73.0,-100.00,SSW,195,4.0,7.0,98,-99.99,,,-99.99,,2013-07-21 13:52:00,
2013-07-21 10:01:00,75.0,70.0,-100.00,East,95,2.0,7.0,83,-99.99,,,-99.99,,2013-07-21 14:01:00,
2013-07-21 10:12:00,76.0,68.0,-100.00,SE,130,2.0,4.0,74,-99.99,,,-99.99,,2013-07-21 14:12:00,
2013-07-21 10:23:00,76.0,68.0,-100.00,SE,130,2.0,4.0,74,-99.99,,,-99.99,,2013-07-21 14:23:00,
2013-07-21 10:32:00,79.0,67.0,-100.00,SSE,165,0.0,5.0,66,-99.99,,,-99.99,,2013-07-21 14:32:00,
2013-07-21 10:43:00,80.0,66.0,-100.00,SSW,200,1.0,4.0,63,-99.99,,,-99.99,,2013-07-21 14:43:00,
2013-07-21 10:53:00,80.0,65.0,-100.00,SSW,210,1.0,2.0,60,-99.99,,,-99.99,,2013-07-21 14:53:00,
2013-07-21 11:02:00,81.0,65.0,-100.00,SW,215,1.0,3.0,58,-99.99,,,-99.99,,2013-07-21 15:02:00,
2013-07-21 11:11:00,81.0,66.0,-100.00,ENE,65,0.0,2.0,60,-99.99,,,-99.99,,2013-07-21 15:11:00,
2013-07-21 11:22:00,81.0,64.0,-100.00,West,275,0.0,3.0,57,-99.99,,,-99.99,,2013-07-21 15:22:00,
2013-07-21 11:32:00,82.0,65.0,-100.00,NNE,30,1.0,4.0,56,-99.99,,,-99.99,,2013-07-21 15:32:00,
2013-07-21 11:43:00,81.0,64.0,-100.00,East,95,2.0,3.0,56,-99.99,,,-99.99,,2013-07-21 15:43:00,
2013-07-21 11:53:00,81.0,65.0,-100.00,SW,235,2.0,4.0,57,-99.99,,,-99.99,,2013-07-21 15:53:00,
2013-07-21 12:01:00,81.0,64.0,-100.00,SW,220,0.0,2.0,56,-99.99,,,-99.99,,2013-07-21 16:01:00,
2013-07-21 12:11:00,82.0,64.0,-100.00,NE,40,0.0,2.0,55,-99.99,,,-99.99,,2013-07-21 16:11:00,
2013-07-21 12:22:00,82.0,64.0,-100.00,SW,220,1.0,3.0,53,-99.99,,,-99.99,,2013-07-21 16:22:00,
2013-07-21 12:32:00,82.0,64.0,-100.00,NW,305,3.0,5.0,54,-99.99,,,-99.99,,2013-07-21 16:32:00,
2013-07-21 12:43:00,82.0,64.0,-100.00,ESE,110,1.0,7.0,54,-99.99,,,-99.99,,2013-07-21 16:43:00,
2013-07-21 12:52:00,82.0,63.0,-100.00,NW,305,1.0,2.0,52,-99.99,,,-99.99,,2013-07-21 16:52:00,
2013-07-21 13:02:00,81.0,65.0,-100.00,NE,40,2.0,9.0,58,-99.99,,,-99.99,,2013-07-21 17:02:00,
2013-07-21 13:11:00,82.0,64.0,-100.00,SSE,150,1.0,4.0,55,-99.99,,,-99.99,,2013-07-21 17:11:00,
2013-07-21 13:22:00,80.0,64.0,-100.00,North,0,4.0,6.0,59,-99.99,,,-99.99,,2013-07-21 17:22:00,
2013-07-21 13:33:00,81.0,64.0,-100.00,East,90,1.0,6.0,56,-99.99,,,-99.99,,2013-07-21 17:33:00,
2013-07-21 13:43:00,81.0,64.0,-100.00,East,90,1.0,6.0,56,-99.99,,,-99.99,,2013-07-21 17:43:00,
2013-07-21 14:01:00,80.0,67.0,-100.00,North,5,1.0,6.0,64,-99.99,,,-99.99,,2013-07-21 18:01:00,
2013-07-21 14:11:00,80.0,67.0,-100.00,North,5,1.0,6.0,64,-99.99,,,-99.99,,2013-07-21 18:11:00,
2013-07-21 14:22:00,80.0,67.0,-100.00,North,0,6.0,8.0,66,-99.99,,,-99.99,,2013-07-21 18:22:00,
2013-07-21 14:32:00,78.0,68.0,-100.00,North,0,5.0,9.0,70,-99.99,,,-99.99,,2013-07-21 18:32:00,
2013-07-21 14:43:00,78.0,68.0,-100.00,North,0,5.0,9.0,70,-99.99,,,-99.99,,2013-07-21 18:43:00,
2013-07-21 14:52:00,78.0,68.0,-100.00,North,0,5.0,9.0,70,-99.99,,,-99.99,,2013-07-21 18:52:00,
2013-07-21 15:01:00,80.0,69.0,-100.00,North,350,7.0,11.0,68,-99.99,,,-99.99,,2013-07-21 19:01:00,
2013-07-21 15:11:00,80.0,69.0,-100.00,North,350,7.0,11.0,68,-99.99,,,-99.99,,2013-07-21 19:11:00,
2013-07-21 15:22:00,80.0,67.0,-100.00,North,355,4.0,11.0,64,-99.99,,,-99.99,,2013-07-21 19:22:00,
2013-07-21 15:32:00,80.0,67.0,-100.00,North,355,4.0,11.0,64,-99.99,,,-99.99,,2013-07-21 19:32:00,
2013-07-21 15:42:00,80.0,67.0,-100.00,North,355,4.0,11.0,64,-99.99,,,-99.99,,2013-07-21 19:42:00,
2013-07-21 15:52:00,80.0,66.0,-100.00,North,0,2.0,9.0,62,-99.99,,,-99.99,,2013-07-21 19:52:00,
2013-07-21 16:02:00,80.0,66.0,-100.00,North,350,5.0,10.0,62,-99.99,,,-99.99,,2013-07-21 20:02:00,
2013-07-21 16:12:00,80.0,66.0,-100.00,North,0,4.0,8.0,62,-99.99,,,-99.99,,2013-07-21 20:12:00,
2013-07-21 16:22:00,79.0,65.0,-100.00,North,0,7.0,10.0,62,-99.99,,,-99.99,,2013-07-21 20:22:00,
2013-07-21 16:32:00,79.0,65.0,-100.00,North,0,5.0,8.0,63,-99.99,,,-99.99,,2013-07-21 20:32:00,
2013-07-21 16:43:00,80.0,66.0,-100.00,North,350,6.0,13.0,62,-99.99,,,-99.99,,2013-07-21 20:43:00,
2013-07-21 16:52:00,81.0,67.0,-100.00,North,355,4.0,9.0,62,-99.99,,,-99.99,,2013-07-21 20:52:00,
2013-07-21 17:01:00,79.0,65.0,-100.00,North,0,8.0,12.0,62,-99.99,,,-99.99,,2013-07-21 21:01:00,
2013-07-21 17:11:00,79.0,65.0,-100.00,NNW,335,4.0,12.0,63,-99.99,,,-99.99,,2013-07-21 21:11:00,
2013-07-21 17:22:00,79.0,65.0,-100.00,NNW,335,4.0,12.0,63,-99.99,,,-99.99,,2013-07-21 21:22:00,
2013-07-21 17:32:00,79.0,65.0,-100.00,NNW,335,4.0,12.0,63,-99.99,,,-99.99,,2013-07-21 21:32:00,
2013-07-21 17:43:00,78.0,65.0,-100.00,North,0,2.0,10.0,64,-99.99,,,-99.99,,2013-07-21 21:43:00,
2013-07-21 17:52:00,78.0,66.0,-100.00,North,0,3.0,9.0,65,-99.99,,,-99.99,,2013-07-21 21:52:00,
2013-07-21 18:01:00,78.0,66.0,-100.00,North,350,5.0,10.0,65,-99.99,,,-99.99,,2013-07-21 22:01:00,
2013-07-21 18:11:00,79.0,65.0,-100.00,NNW,335,4.0,7.0,63,-99.99,,,-99.99,,2013-07-21 22:11:00,
2013-07-21 18:22:00,79.0,65.0,-100.00,NNW,335,4.0,7.0,63,-99.99,,,-99.99,,2013-07-21 22:22:00,
2013-07-21 18:32:00,79.0,65.0,-100.00,North,10,1.0,8.0,64,-99.99,,,-99.99,,2013-07-21 22:32:00,
2013-07-21 18:43:00,78.0,65.0,-100.00,NNW,340,3.0,9.0,63,-99.99,,,-99.99,,2013-07-21 22:43:00,
2013-07-21 19:02:00,77.0,65.0,-100.00,ENE,70,1.0,4.0,65,-99.99,,,-99.99,,2013-07-21 23:02:00,
2013-07-21 19:11:00,77.0,65.0,-100.00,ENE,70,1.0,4.0,65,-99.99,,,-99.99,,2013-07-21 23:11:00,
2013-07-21 19:22:00,77.0,65.0,-100.00,ENE,70,1.0,4.0,65,-99.99,,,-99.99,,2013-07-21 23:22:00,
2013-07-21 19:32:00,75.0,64.0,-100.00,North,0,2.0,6.0,67,-99.99,,,-99.99,,2013-07-21 23:32:00,
2013-07-21 19:42:00,75.0,64.0,-100.00,North,0,2.0,6.0,67,-99.99,,,-99.99,,2013-07-21 23:42:00,
2013-07-21 19:53:00,75.0,64.0,-100.00,North,0,2.0,6.0,67,-99.99,,,-99.99,,2013-07-21 23:53:00,
2013-07-21 20:01:00,73.0,65.0,-100.00,ENE,70,0.0,3.0,74,-99.99,,,-99.99,,2013-07-22 00:01:00,
2013-07-21 20:11:00,73.0,66.0,-100.00,West,260,0.0,2.0,78,-99.99,,,-99.99,,2013-07-22 00:11:00,
2013-07-21 20:22:00,73.0,67.0,-100.00,East,90,0.0,1.0,81,-99.99,,,-99.99,,2013-07-22 00:22:00,
2013-07-21 20:32:00,72.0,67.0,-100.00,East,85,0.0,1.0,84,-99.99,,,-99.99,,2013-07-22 00:32:00,
2013-07-21 20:42:00,71.0,67.0,-100.00,East,90,0.0,1.0,87,-99.99,,,-99.99,,2013-07-22 00:42:00,
2013-07-21 20:52:00,71.0,68.0,-100.00,NW,325,0.0,1.0,90,-99.99,,,-99.99,,2013-07-22 00:52:00,
2013-07-21 21:02:00,71.0,68.0,-100.00,NW,325,0.0,1.0,90,-99.99,,,-99.99,,2013-07-22 01:02:00,
2013-07-21 21:12:00,69.0,68.0,-100.00,NNE,20,0.0,1.0,94,-99.99,,,-99.99,,2013-07-22 01:12:00,
2013-07-21 21:22:00,69.0,68.0,-100.00,NNE,20,0.0,1.0,94,-99.99,,,-99.99,,2013-07-22 01:22:00,
2013-07-21 21:32:00,69.0,68.0,-100.00,NNE,20,0.0,1.0,94,-99.99,,,-99.99,,2013-07-22 01:32:00,
2013-07-21 21:42:00,68.0,67.0,-100.00,West,260,0.0,0.0,99,-99.99,,,-99.99,,2013-07-22 01:42:00,
2013-07-21 21:52:00,67.0,67.0,-100.00,WSW,255,0.0,0.0,99,-99.99,,,-99.99,,2013-07-22 01:52:00,
2013-07-21 22:02:00,67.0,67.0,-100.00,NW,320,0.0,1.0,99,-99.99,,,-99.99,,2013-07-22 02:02:00,
2013-07-21 22:11:00,67.0,67.0,-100.00,NNW,335,0.0,1.0,99,-99.99,,,-99.99,,2013-07-22 02:11:00,
2013-07-21 22:22:00,66.0,66.0,-100.00,WNW,285,0.0,0.0,99,-99.99,,,-99.99,,2013-07-22 02:22:00,
2013-07-21 22:32:00,66.0,66.0,-100.00,West,260,0.0,1.0,99,-99.99,,,-99.99,,2013-07-22 02:32:00,
2013-07-21 22:43:00,66.0,66.0,-100.00,North,355,0.0,1.0,99,-99.99,,,-99.99,,2013-07-22 02:43:00,
2013-07-21 22:52:00,66.0,66.0,-100.00,North,355,0.0,1.0,99,-99.99,,,-99.99,,2013-07-22 02:52:00,
2013-07-21 23:01:00,65.0,65.0,-100.00,NW,305,0.0,1.0,99,-99.99,,,-99.99,,2013-07-22 03:01:00,
2013-07-21 23:12:00,65.0,65.0,-100.00,WNW,300,0.0,0.0,99,-99.99,,,-99.99,,2013-07-22 03:12:00,
2013-07-21 23:22:00,65.0,65.0,-100.00,West,270,0.0,0.0,99,-99.99,,,-99.99,,2013-07-22 03:22:00,
2013-07-21 23:33:00,65.0,64.0,-100.00,ESE,105,0.0,2.0,99,-99.99,,,-99.99,,2013-07-22 03:33:00,
2013-07-21 23:43:00,65.0,64.0,-100.00,ESE,115,0.0,1.0,99,-99.99,,,-99.99,,2013-07-22 03:43:00,
2013-07-21 23:53:00,64.0,64.0,-100.00,SE,145,0.0,2.0,99,-99.99,,,-99.99,,2013-07-22 03:53:00,